Time;durP1;ratioP1;P1;durP2;ratioP2;P2;SDS_P1;SDS_P2;PMS_P1;PMS_P2;Temp;Humidity;BMP_temperature;BMP_pressure;BME280_temperature;BME280_humidity;BME280_pressure;Samples;Min_cycle;Max_cycle;Signal;HPM_P1;HPM_P2
2022/12/13 00:00:41;;;;;;;117.57;44.60;;;-2.20;99.90;;;;;;4993855;28;20032;-66
2022/12/13 00:03:07;;;;;;;116.70;44.35;;;-2.20;99.90;;;;;;4993571;28;20610;-66
2022/12/13 00:05:32;;;;;;;113.63;44.03;;;-2.20;99.90;;;;;;4993534;28;20028;-66
2022/12/13 00:07:59;;;;;;;113.43;42.45;;;-2.20;99.90;;;;;;4993805;28;20492;-66
2022/12/13 00:10:25;;;;;;;125.05;43.90;;;-2.20;99.90;;;;;;4992999;28;20497;-66
2022/12/13 00:12:50;;;;;;;108.22;43.45;;;-2.20;99.90;;;;;;4994054;28;20034;-66
2022/12/13 00:15:16;;;;;;;119.00;43.75;;;-2.20;99.90;;;;;;4993227;28;20081;-66
2022/12/13 00:17:41;;;;;;;102.82;42.67;;;-2.10;99.90;;;;;;4993557;28;20035;-66
2022/12/13 00:20:07;;;;;;;119.57;43.00;;;-2.10;99.90;;;;;;4993108;28;20034;-66
2022/12/13 00:22:33;;;;;;;130.95;47.60;;;-2.10;99.90;;;;;;4993678;28;20053;-66
2022/12/13 00:24:59;;;;;;;130.13;48.25;;;-2.10;99.90;;;;;;4993377;28;20062;-66
2022/12/13 00:27:24;;;;;;;117.40;44.75;;;-2.00;99.90;;;;;;4993265;28;20045;-66
2022/12/13 00:29:50;;;;;;;124.18;47.28;;;-2.10;99.90;;;;;;4994633;28;20031;-65
2022/12/13 00:32:16;;;;;;;132.23;47.83;;;-2.00;99.90;;;;;;4996741;28;20427;-66
2022/12/13 00:34:41;;;;;;;121.75;45.47;;;-2.00;99.90;;;;;;4997202;28;20388;-66
2022/12/13 00:37:07;;;;;;;114.15;44.83;;;-2.00;99.90;;;;;;4996746;28;20363;-65
2022/12/13 00:39:32;;;;;;;119.63;44.67;;;-2.00;99.90;;;;;;4997138;28;20073;-65
2022/12/13 00:41:58;;;;;;;125.03;46.72;;;-2.00;99.90;;;;;;4996994;28;20026;-66
2022/12/13 00:44:23;;;;;;;138.73;50.67;;;-2.10;99.90;;;;;;4996808;28;20033;-65
2022/12/13 00:46:52;;;;;;;118.10;44.80;;;-2.10;99.90;;;;;;4996220;28;20019;-66
2022/12/13 00:49:18;;;;;;;119.25;45.35;;;-2.10;99.90;;;;;;4996972;28;20035;-65
2022/12/13 00:51:43;;;;;;;119.43;43.35;;;-2.20;99.90;;;;;;4996903;28;20470;-66
2022/12/13 00:54:09;;;;;;;119.95;45.03;;;-2.20;99.90;;;;;;4996845;28;20370;-65
2022/12/13 00:56:36;;;;;;;114.53;43.80;;;-2.30;99.90;;;;;;4996507;28;20098;-66
2022/12/13 00:59:02;;;;;;;114.30;43.22;;;-2.40;99.90;;;;;;4995910;28;20484;-66
2022/12/13 01:01:31;;;;;;;115.22;42.90;;;-2.50;99.90;;;;;;4996727;28;20077;-66
2022/12/13 01:03:58;;;;;;;115.50;42.65;;;-2.70;99.90;;;;;;4996709;28;20113;-66
2022/12/13 01:06:30;;;;;;;109.22;41.90;;;-2.80;99.90;;;;;;4996319;28;20466;-66
2022/12/13 01:08:55;;;;;;;109.55;41.65;;;-2.90;99.90;;;;;;4996033;28;20084;-66
2022/12/13 01:11:21;;;;;;;108.57;41.28;;;-3.00;99.90;;;;;;4996289;28;20109;-65
2022/12/13 01:13:47;;;;;;;120.78;45.47;;;-3.20;99.90;;;;;;4996321;28;20030;-65
2022/12/13 01:16:13;;;;;;;126.10;45.97;;;-3.20;99.90;;;;;;4994903;28;20150;-66
2022/12/13 01:18:39;;;;;;;116.55;46.75;;;-3.30;99.90;;;;;;4984952;28;20039;-66
2022/12/13 01:21:10;;;;;;;122.75;46.30;;;-3.40;99.90;;;;;;4991851;28;20070;-65
2022/12/13 01:23:36;;;;;;;122.55;44.40;;;-3.50;99.90;;;;;;4994711;28;20034;-66
2022/12/13 01:26:07;;;;;;;126.18;46.40;;;-3.40;99.90;;;;;;4995957;28;20026;-66
2022/12/13 01:28:32;;;;;;;123.35;44.40;;;-3.40;99.90;;;;;;4995878;28;20022;-66
2022/12/13 01:31:00;;;;;;;127.30;45.72;;;-3.30;99.90;;;;;;4996465;28;20537;-65
2022/12/13 01:33:28;;;;;;;113.22;43.13;;;-3.30;99.90;;;;;;4995885;28;20088;-65
2022/12/13 01:35:53;;;;;;;136.73;48.70;;;-3.30;99.90;;;;;;4995252;28;20485;-66
2022/12/13 01:38:20;;;;;;;129.30;48.38;;;-3.20;99.90;;;;;;4996256;28;20084;-65
2022/12/13 01:40:48;;;;;;;131.95;47.38;;;-3.20;99.90;;;;;;4995853;28;20095;-66
2022/12/13 01:43:15;;;;;;;130.55;43.33;;;-3.20;99.90;;;;;;4995688;28;20032;-66
2022/12/13 01:45:41;;;;;;;110.82;43.85;;;-3.20;99.90;;;;;;4995622;28;20023;-65
2022/12/13 01:48:13;;;;;;;119.93;44.85;;;-3.20;99.90;;;;;;4995214;28;20057;-66
2022/12/13 01:50:45;;;;;;;109.70;45.25;;;-3.20;99.90;;;;;;4995905;28;20545;-65
2022/12/13 01:53:16;;;;;;;113.18;43.03;;;-3.20;99.90;;;;;;4995596;28;20031;-65
2022/12/13 01:55:45;;;;;;;106.60;41.42;;;-3.30;99.90;;;;;;4995429;28;20974;-65
2022/12/13 01:58:13;;;;;;;113.13;41.03;;;-3.30;99.90;;;;;;4995921;28;20038;-65
2022/12/13 02:00:40;;;;;;;113.50;42.70;;;-3.40;99.90;;;;;;4995314;28;20493;-66
2022/12/13 02:03:06;;;;;;;105.57;41.78;;;-3.50;99.90;;;;;;4994811;28;20038;-65
2022/12/13 02:05:49;;;;;;;111.72;40.50;;;-3.60;99.90;;;;;;4995439;28;20109;-66
2022/12/13 02:08:15;;;;;;;113.78;43.05;;;-3.70;99.90;;;;;;4995182;28;20113;-65
2022/12/13 02:10:42;;;;;;;107.80;42.72;;;-3.80;99.90;;;;;;4995483;28;20057;-65
2022/12/13 02:13:08;;;;;;;105.45;41.30;;;-3.90;99.90;;;;;;4994476;28;20441;-66
2022/12/13 02:15:47;;;;;;;114.25;43.05;;;-4.00;99.90;;;;;;4994915;28;20038;-65
2022/12/13 02:18:15;;;;;;;104.20;41.58;;;-4.10;99.90;;;;;;4995134;28;20037;-65
2022/12/13 02:21:00;;;;;;;103.75;40.28;;;-4.20;99.90;;;;;;4994974;28;20022;-65
2022/12/13 02:23:58;;;;;;;105.90;38.35;;;-4.40;99.90;;;;;;4995257;28;20033;-65
2022/12/13 02:26:30;;;;;;;98.45;36.70;;;-4.50;99.90;;;;;;4994934;28;20073;-65
2022/12/13 02:29:16;;;;;;;99.75;39.70;;;-4.60;99.90;;;;;;4994982;28;20034;-66
2022/12/13 02:31:48;;;;;;;123.68;42.10;;;-4.70;99.90;;;;;;4995294;28;20026;-65
2022/12/13 02:34:24;;;;;;;129.20;44.75;;;-4.80;99.90;;;;;;4994660;28;20023;-65
2022/12/13 02:37:00;;;;;;;120.47;43.63;;;-4.80;99.90;;;;;;4994941;28;20393;-65
2022/12/13 02:39:33;;;;;;;137.07;43.78;;;-4.80;99.90;;;;;;4994491;28;20033;-65
2022/12/13 02:42:18;;;;;;;115.65;44.22;;;-4.80;99.90;;;;;;4994362;28;20414;-65
2022/12/13 02:44:59;;;;;;;114.00;41.95;;;-4.70;99.90;;;;;;4994569;28;20027;-66
2022/12/13 02:47:27;;;;;;;120.43;42.10;;;-4.70;99.90;;;;;;4994704;28;20113;-66
2022/12/13 02:49:56;;;;;;;117.57;40.25;;;-4.60;99.90;;;;;;4994481;28;20109;-65
2022/12/13 02:52:26;;;;;;;123.40;43.67;;;-4.60;99.90;;;;;;4993870;28;20026;-65
2022/12/13 02:54:55;;;;;;;118.97;41.65;;;-4.50;99.90;;;;;;4994359;28;20027;-65
2022/12/13 02:57:35;;;;;;;134.50;46.67;;;-4.50;99.90;;;;;;4993688;28;20096;-65
2022/12/13 03:00:09;;;;;;;137.70;44.50;;;-4.50;99.90;;;;;;4994435;28;20078;-65
2022/12/13 03:02:58;;;;;;;121.80;46.08;;;-4.60;99.90;;;;;;4994606;28;20065;-65
2022/12/13 03:08:42;;;;;;;132.55;46.95;;;-4.40;99.90;;;;;;4994769;28;20449;-65
2022/12/13 03:11:15;;;;;;;131.30;46.40;;;-4.30;99.90;;;;;;4993824;28;20026;-66
2022/12/13 03:13:58;;;;;;;125.88;45.13;;;-4.30;99.90;;;;;;4994105;28;20034;-65
2022/12/13 03:16:32;;;;;;;141.38;47.25;;;-4.20;99.90;;;;;;4994089;28;20042;-65
2022/12/13 03:19:00;;;;;;;144.07;48.92;;;-4.10;99.90;;;;;;4994834;28;20031;-66
2022/12/13 03:21:27;;;;;;;129.60;49.25;;;-4.10;99.90;;;;;;4993463;28;20081;-65
2022/12/13 03:23:53;;;;;;;130.65;45.90;;;-4.00;99.90;;;;;;4993332;28;20150;-65
2022/12/13 03:26:22;;;;;;;129.32;44.53;;;-4.00;99.90;;;;;;4994106;28;20178;-65
2022/12/13 03:28:48;;;;;;;114.90;41.35;;;-4.00;99.90;;;;;;4993821;28;20026;-66
2022/12/13 03:31:14;;;;;;;141.10;48.03;;;-4.00;99.90;;;;;;4994119;28;20080;-65
2022/12/13 03:33:39;;;;;;;132.77;49.88;;;-4.10;99.90;;;;;;4993312;28;20506;-65
2022/12/13 03:36:06;;;;;;;124.28;46.75;;;-4.20;99.90;;;;;;4993665;28;20026;-65
2022/12/13 03:38:31;;;;;;;109.03;41.20;;;-4.40;99.90;;;;;;4993789;28;20109;-65
2022/12/13 03:41:01;;;;;;;109.75;42.30;;;-4.50;99.90;;;;;;4993059;28;20518;-65
2022/12/13 03:43:27;;;;;;;102.50;40.35;;;-4.60;99.90;;;;;;4993681;28;20030;-65
2022/12/13 03:45:53;;;;;;;108.97;40.53;;;-4.80;99.90;;;;;;4993376;28;20026;-65
2022/12/13 03:48:20;;;;;;;113.80;44.15;;;-4.90;99.90;;;;;;4993551;28;20062;-65
2022/12/13 03:50:45;;;;;;;106.90;40.25;;;-5.00;99.90;;;;;;4993743;28;20029;-66
2022/12/13 03:53:11;;;;;;;133.05;42.92;;;-5.10;99.90;;;;;;4993177;28;20018;-66
2022/12/13 03:55:37;;;;;;;97.57;38.95;;;-5.10;99.90;;;;;;4993550;28;20034;-65
2022/12/13 03:58:03;;;;;;;94.68;38.05;;;-5.20;99.90;;;;;;4993529;28;20039;-65
2022/12/13 04:00:28;;;;;;;99.15;36.45;;;-5.30;99.90;;;;;;4993665;28;20029;-65
2022/12/13 04:02:54;;;;;;;111.72;41.25;;;-5.30;99.90;;;;;;4994169;28;20027;-65
2022/12/13 04:05:19;;;;;;;105.50;38.67;;;-5.30;99.90;;;;;;4995154;28;20060;-66
2022/12/13 04:07:45;;;;;;;115.45;40.15;;;-5.30;99.90;;;;;;4997332;28;20050;-65
2022/12/13 04:10:11;;;;;;;113.00;42.60;;;-5.10;99.90;;;;;;4997693;28;20033;-66
2022/12/13 04:15:20;;;;;;;118.72;41.17;;;-4.90;99.90;;;;;;4997027;28;20105;-66
2022/12/13 04:17:46;;;;;;;121.47;44.72;;;-4.80;99.90;;;;;;4997537;28;20117;-65
2022/12/13 04:20:12;;;;;;;131.57;44.60;;;-4.60;99.90;;;;;;4997204;28;20052;-65
2022/12/13 04:22:37;;;;;;;124.80;43.25;;;-4.50;99.90;;;;;;4997322;28;20492;-66
2022/12/13 04:25:03;;;;;;;130.00;45.60;;;-4.40;99.90;;;;;;4997119;28;20565;-65
2022/12/13 04:27:29;;;;;;;130.02;45.30;;;-4.30;99.90;;;;;;4996836;28;20084;-66
2022/12/13 04:29:55;;;;;;;122.00;43.20;;;-4.20;99.90;;;;;;4997141;28;20465;-65
2022/12/13 04:32:21;;;;;;;135.00;45.28;;;-4.20;99.90;;;;;;4997306;28;20030;-65
2022/12/13 04:34:46;;;;;;;126.85;48.17;;;-4.10;99.90;;;;;;4996977;28;20035;-65
2022/12/13 04:37:12;;;;;;;129.98;45.75;;;-4.00;99.90;;;;;;4996275;28;20113;-66
2022/12/13 04:39:37;;;;;;;126.15;47.20;;;-4.00;99.90;;;;;;4996901;28;20026;-65
2022/12/13 04:42:03;;;;;;;125.32;47.53;;;-3.90;99.90;;;;;;4996732;28;20034;-65
2022/12/13 04:44:29;;;;;;;124.60;47.20;;;-3.90;99.90;;;;;;4997075;28;20069;-65
2022/12/13 04:46:54;;;;;;;131.20;51.03;;;-3.80;99.90;;;;;;4996244;28;20530;-65
2022/12/13 04:49:20;;;;;;;132.65;48.42;;;-3.80;99.90;;;;;;4996970;28;20026;-65
2022/12/13 04:51:45;;;;;;;130.70;45.17;;;-3.80;99.90;;;;;;4996575;28;20525;-66
2022/12/13 04:54:11;;;;;;;126.88;46.38;;;-3.80;99.90;;;;;;4996628;28;20045;-65
2022/12/13 04:56:37;;;;;;;122.57;45.80;;;-3.70;99.90;;;;;;4995854;28;20034;-66
2022/12/13 04:59:03;;;;;;;125.70;48.20;;;-3.60;99.90;;;;;;4996543;28;20066;-65
2022/12/13 05:01:28;;;;;;;131.63;48.10;;;-3.70;99.90;;;;;;4995924;28;20029;-66
2022/12/13 05:03:54;;;;;;;148.25;49.88;;;-3.60;99.90;;;;;;4996554;28;20030;-66
2022/12/13 05:06:19;;;;;;;124.40;48.10;;;-3.60;99.90;;;;;;4996634;28;20480;-65
2022/12/13 05:08:45;;;;;;;134.20;47.92;;;-3.60;99.90;;;;;;4995694;28;20405;-66
2022/12/13 05:11:10;;;;;;;133.15;47.95;;;-3.60;99.90;;;;;;4996843;28;20065;-66
2022/12/13 05:13:36;;;;;;;135.57;48.72;;;-3.60;99.90;;;;;;4995645;28;20450;-65
2022/12/13 05:16:05;;;;;;;120.90;44.58;;;-3.50;99.90;;;;;;4995569;28;20399;-65
2022/12/13 05:18:30;;;;;;;119.20;42.45;;;-3.50;99.90;;;;;;4995858;28;20026;-65
2022/12/13 05:21:04;;;;;;;135.43;47.28;;;-3.40;99.90;;;;;;4996080;28;20026;-65
2022/12/13 05:23:29;;;;;;;;;;;-3.50;99.90;;;;;;4995361;28;20501;-66
2022/12/13 05:25:56;;;;;;;116.00;43.92;;;-3.50;99.90;;;;;;4996031;28;19910;-66
2022/12/13 05:28:24;;;;;;;124.53;46.97;;;-3.40;99.90;;;;;;4995722;28;20057;-66
2022/12/13 05:30:50;;;;;;;114.53;42.83;;;-3.50;99.90;;;;;;4995900;28;20065;-65
2022/12/13 05:33:16;;;;;;;118.45;46.20;;;-3.50;99.90;;;;;;4995099;28;20033;-65
2022/12/13 05:35:41;;;;;;;133.48;47.63;;;-3.60;99.90;;;;;;4994854;28;20034;-66
2022/12/13 05:38:07;;;;;;;139.00;50.55;;;-3.60;99.90;;;;;;4994313;28;20115;-66
2022/12/13 05:40:32;;;;;;;135.50;48.58;;;-3.50;99.90;;;;;;4995823;28;20030;-66
2022/12/13 05:42:58;;;;;;;122.07;46.42;;;-3.60;99.90;;;;;;4995782;28;20031;-65
2022/12/13 05:45:24;;;;;;;133.77;50.10;;;-3.50;99.90;;;;;;4995979;28;20034;-66
2022/12/13 05:47:50;;;;;;;128.50;47.60;;;-3.60;99.90;;;;;;4995685;28;20034;-65
2022/12/13 05:50:16;;;;;;;132.43;47.08;;;-3.40;99.90;;;;;;4995367;28;20026;-65
2022/12/13 05:52:42;;;;;;;130.20;49.72;;;-3.40;99.90;;;;;;4995849;28;20375;-65
2022/12/13 05:55:08;;;;;;;125.38;48.30;;;-3.30;99.90;;;;;;4995704;28;20397;-65
2022/12/13 05:57:34;;;;;;;126.13;48.05;;;-3.20;99.90;;;;;;4995437;28;20038;-65
2022/12/13 05:59:59;;;;;;;142.85;50.03;;;-3.20;99.90;;;;;;4995075;28;20109;-66
2022/12/13 06:02:25;;;;;;;146.52;51.08;;;-3.20;99.90;;;;;;4995386;28;20034;-66
2022/12/13 06:04:50;;;;;;;141.75;50.15;;;-3.10;99.90;;;;;;4995431;28;20498;-65
2022/12/13 06:07:16;;;;;;;139.13;51.90;;;-3.10;99.90;;;;;;4995222;28;20104;-65
2022/12/13 06:09:42;;;;;;;130.05;50.47;;;-3.00;99.90;;;;;;4994956;28;20037;-66
2022/12/13 06:12:08;;;;;;;134.77;50.50;;;-3.00;99.90;;;;;;4995443;28;20022;-65
2022/12/13 06:14:34;;;;;;;134.85;49.20;;;-2.90;99.90;;;;;;4995435;28;20460;-65
2022/12/13 06:17:00;;;;;;;134.10;49.20;;;-2.90;99.90;;;;;;4995005;28;20101;-65
2022/12/13 06:19:25;;;;;;;139.93;50.47;;;-2.90;99.90;;;;;;4995254;28;20034;-65
2022/12/13 06:21:53;;;;;;;141.40;50.10;;;-2.90;99.90;;;;;;4994491;28;20033;-66
2022/12/13 06:24:21;;;;;;;122.32;47.95;;;-2.80;99.90;;;;;;4995261;28;20023;-65
2022/12/13 06:26:47;;;;;;;135.23;53.50;;;-2.80;99.90;;;;;;4994322;28;20061;-65
2022/12/13 06:29:18;;;;;;;134.38;48.70;;;-2.80;99.90;;;;;;4994953;28;20045;-65
2022/12/13 06:31:43;;;;;;;148.35;52.28;;;-2.80;99.90;;;;;;4994623;28;20053;-66
2022/12/13 06:34:09;;;;;;;134.50;50.88;;;-2.80;99.90;;;;;;4994721;28;20474;-65
2022/12/13 06:36:34;;;;;;;137.43;51.35;;;-2.70;99.90;;;;;;4994941;28;20529;-65
2022/12/13 06:39:06;;;;;;;140.05;50.40;;;-2.70;99.90;;;;;;4994604;28;20102;-65
2022/12/13 06:41:32;;;;;;;122.18;49.25;;;-2.70;99.90;;;;;;4994067;28;20426;-65
2022/12/13 06:43:58;;;;;;;113.22;46.00;;;-2.70;99.90;;;;;;4994879;28;20441;-65
2022/12/13 06:46:24;;;;;;;115.47;44.15;;;-2.70;99.90;;;;;;4994757;28;20386;-65
2022/12/13 06:48:50;;;;;;;123.38;45.70;;;-2.60;99.90;;;;;;4994035;28;20034;-66
2022/12/13 06:51:16;;;;;;;108.97;45.15;;;-2.60;99.90;;;;;;4994776;28;20076;-66
2022/12/13 06:53:42;;;;;;;114.72;45.40;;;-2.60;99.90;;;;;;4994720;28;20030;-65
2022/12/13 06:56:11;;;;;;;116.85;45.97;;;-2.60;99.90;;;;;;4994380;28;20049;-66
2022/12/13 06:58:36;;;;;;;125.47;45.97;;;-2.60;99.90;;;;;;4994320;28;20390;-66
2022/12/13 07:01:06;;;;;;;123.85;46.15;;;-2.60;99.90;;;;;;4993945;28;20023;-66
2022/12/13 07:03:33;;;;;;;122.43;47.05;;;-2.60;99.90;;;;;;4994575;28;20022;-65
2022/12/13 07:06:02;;;;;;;123.75;47.92;;;-2.60;99.90;;;;;;4994507;28;20058;-66
2022/12/13 07:08:27;;;;;;;130.38;46.88;;;-2.60;99.90;;;;;;4994434;28;20022;-65
2022/12/13 07:10:54;;;;;;;127.80;47.38;;;-2.60;99.90;;;;;;4994413;28;20026;-65
2022/12/13 07:13:20;;;;;;;135.27;49.47;;;-2.60;99.90;;;;;;4993546;28;20506;-66
2022/12/13 07:15:46;;;;;;;135.98;49.38;;;-2.60;99.90;;;;;;4993876;28;20042;-65
2022/12/13 07:18:12;;;;;;;132.50;50.25;;;-2.60;99.90;;;;;;4994280;28;20034;-65
2022/12/13 07:20:39;;;;;;;133.70;48.70;;;-2.60;99.90;;;;;;4994207;28;20018;-66
2022/12/13 07:23:05;;;;;;;122.22;48.15;;;-2.70;99.90;;;;;;4994249;28;20022;-66
2022/12/13 07:25:30;;;;;;;139.25;53.58;;;-2.60;99.90;;;;;;4993876;28;20026;-66
2022/12/13 07:28:04;;;;;;;124.70;47.40;;;-2.60;99.90;;;;;;4993318;28;20028;-66
2022/12/13 07:30:37;;;;;;;136.90;49.88;;;-2.60;99.90;;;;;;4994192;28;20544;-66
2022/12/13 07:33:04;;;;;;;120.43;47.67;;;-2.60;99.90;;;;;;4993980;28;20033;-66
2022/12/13 07:35:31;;;;;;;137.75;48.85;;;-2.60;99.90;;;;;;4993743;28;20066;-66
2022/12/13 07:37:57;;;;;;;129.85;51.30;;;-2.60;99.90;;;;;;4993795;28;20085;-66
2022/12/13 07:40:24;;;;;;;125.38;48.50;;;-2.50;99.90;;;;;;4993310;28;20030;-66
2022/12/13 07:42:54;;;;;;;120.15;49.38;;;-2.50;99.90;;;;;;4994034;28;20039;-65
2022/12/13 07:45:21;;;;;;;134.07;49.75;;;-2.50;99.90;;;;;;4993898;28;20080;-66
2022/12/13 07:47:46;;;;;;;122.28;49.22;;;-2.50;99.90;;;;;;4993476;28;20022;-66
2022/12/13 07:50:12;;;;;;;121.85;47.75;;;-2.50;99.90;;;;;;4993701;28;20034;-66
2022/12/13 07:52:38;;;;;;;126.63;49.42;;;-2.40;99.90;;;;;;4993650;28;20029;-66
2022/12/13 07:55:05;;;;;;;142.52;50.00;;;-2.50;99.90;;;;;;4993716;28;20482;-66
2022/12/13 07:57:31;;;;;;;131.55;50.55;;;-2.40;99.90;;;;;;4993711;28;20441;-67
2022/12/13 07:59:57;;;;;;;124.88;52.28;;;-2.40;99.90;;;;;;4993339;28;20014;-67
2022/12/13 08:02:23;;;;;;;128.38;49.20;;;-2.40;99.90;;;;;;4993648;28;20126;-67
2022/12/13 08:04:49;;;;;;;116.50;46.10;;;-2.30;99.90;;;;;;4993821;28;20026;-67
2022/12/13 08:07:14;;;;;;;124.32;49.42;;;-2.30;99.90;;;;;;4993472;28;20513;-67
2022/12/13 08:09:40;;;;;;;128.05;46.85;;;-2.30;99.90;;;;;;4993535;28;20375;-67
2022/12/13 08:12:05;;;;;;;136.07;50.60;;;-2.20;99.90;;;;;;4993011;28;20123;-67
2022/12/13 08:14:31;;;;;;;118.95;47.20;;;-2.20;99.90;;;;;;4994548;28;20106;-67
2022/12/13 08:16:57;;;;;;;111.20;47.55;;;-2.20;99.90;;;;;;5055310;23;20070;-70
2022/12/13 08:19:23;;;;;;;129.23;49.70;;;-2.10;99.90;;;;;;4974249;28;20031;-71
2022/12/13 08:21:51;;;;;;;112.43;46.22;;;-2.20;99.90;;;;;;4974896;28;20494;-71
2022/12/13 08:24:17;;;;;;;118.88;47.30;;;-2.10;99.90;;;;;;4975173;28;20030;-71
2022/12/13 08:26:42;;;;;;;128.00;47.42;;;-2.10;99.90;;;;;;4974953;28;20073;-71
2022/12/13 08:29:08;;;;;;;119.82;49.13;;;-2.10;99.90;;;;;;4974868;28;20023;-71
2022/12/13 08:31:35;;;;;;;128.20;49.22;;;-2.00;99.90;;;;;;4974345;28;20058;-71
2022/12/13 08:34:00;;;;;;;134.35;49.90;;;-2.00;99.90;;;;;;4974797;28;20104;-71
2022/12/13 08:36:27;;;;;;;118.28;47.45;;;-2.00;99.90;;;;;;4973306;28;20023;-71
2022/12/13 08:38:55;;;;;;;127.75;48.85;;;-2.00;99.90;;;;;;4974382;28;20023;-71
2022/12/13 08:41:20;;;;;;;117.63;45.92;;;-2.00;99.90;;;;;;4975163;28;20019;-72
2022/12/13 08:43:47;;;;;;;128.02;51.45;;;-2.00;99.90;;;;;;4973393;28;20054;-71
2022/12/13 08:46:13;;;;;;;129.18;52.50;;;-2.00;99.90;;;;;;4974609;28;20042;-72
2022/12/13 08:48:39;;;;;;;117.90;48.92;;;-1.90;99.90;;;;;;4973364;28;20033;-71
2022/12/13 08:51:08;;;;;;;119.97;47.42;;;-1.90;99.90;;;;;;4960103;28;20039;-71
2022/12/13 08:53:36;;;;;;;114.75;48.03;;;-1.90;99.90;;;;;;4989935;28;20018;-72
2022/12/13 08:56:05;;;;;;;111.93;46.88;;;-1.80;99.90;;;;;;4997752;28;20029;-71
2022/12/13 08:58:30;;;;;;;129.63;49.63;;;-1.80;99.90;;;;;;4996117;28;20509;-72
2022/12/13 09:00:56;;;;;;;120.15;46.95;;;-1.70;99.90;;;;;;4997418;28;20034;-72
2022/12/13 09:03:22;;;;;;;119.20;48.70;;;-1.80;99.90;;;;;;4997236;28;20149;-73
2022/12/13 09:05:48;;;;;;;120.55;47.92;;;-1.80;99.90;;;;;;4996809;28;20109;-72
2022/12/13 09:08:14;;;;;;;110.80;46.08;;;-1.70;99.90;;;;;;4997416;28;20061;-72
2022/12/13 09:10:39;;;;;;;110.57;45.15;;;-1.70;99.90;;;;;;4997476;28;20042;-72
2022/12/13 09:13:05;;;;;;;114.57;47.92;;;-1.70;99.90;;;;;;4997315;28;20057;-71
2022/12/13 09:15:31;;;;;;;116.50;47.00;;;-1.70;99.90;;;;;;4997026;28;20503;-70
2022/12/13 09:17:57;;;;;;;117.68;47.28;;;-1.80;99.90;;;;;;4996205;28;20514;-70
2022/12/13 09:20:24;;;;;;;112.88;46.30;;;-1.70;99.90;;;;;;4993388;28;20030;-70
2022/12/13 09:22:49;;;;;;;122.40;47.20;;;-1.70;99.90;;;;;;4996902;28;20026;-70
2022/12/13 09:25:16;;;;;;;101.47;44.97;;;-1.70;99.90;;;;;;4997134;28;20512;-71
2022/12/13 09:27:42;;;;;;;110.90;47.30;;;-1.60;99.90;;;;;;4996907;28;20039;-71
2022/12/13 09:30:12;;;;;;;108.90;46.33;;;-1.50;99.90;;;;;;4996031;28;20038;-71
2022/12/13 09:32:39;;;;;;;115.85;48.28;;;-1.50;99.90;;;;;;4996621;28;20080;-70
2022/12/13 09:35:08;;;;;;;110.93;47.47;;;-1.60;99.90;;;;;;4996515;28;20018;-70
2022/12/13 09:37:34;;;;;;;115.72;44.25;;;-1.50;99.90;;;;;;4982669;28;20038;-70
2022/12/13 09:39:59;;;;;;;100.25;42.63;;;-1.50;99.90;;;;;;4976442;28;20026;-70
2022/12/13 09:42:28;;;;;;;102.50;45.78;;;-1.40;99.90;;;;;;4977203;28;20023;-70
2022/12/13 09:44:58;;;;;;;103.70;44.75;;;-1.40;99.90;;;;;;4976981;28;20022;-70
2022/12/13 09:47:43;;;;;;;107.70;43.88;;;-1.30;99.90;;;;;;4976309;28;20501;-70
2022/12/13 09:50:31;;;;;;;114.30;45.38;;;-1.30;99.90;;;;;;4977016;28;20030;-70
2022/12/13 09:52:59;;;;;;;105.63;45.22;;;-1.10;99.90;;;;;;4975994;28;20019;-70
2022/12/13 09:55:29;;;;;;;109.75;46.05;;;-1.10;99.90;;;;;;4975930;28;20015;-71
2022/12/13 09:57:56;;;;;;;130.65;48.50;;;-1.10;99.90;;;;;;4975751;28;20042;-71
2022/12/13 10:00:24;;;;;;;106.82;45.63;;;-1.00;99.90;;;;;;4976716;28;20019;-71
2022/12/13 10:02:56;;;;;;;117.72;49.58;;;-1.00;99.90;;;;;;4976740;28;20110;-70
2022/12/13 10:05:28;;;;;;;119.75;48.85;;;-1.00;99.90;;;;;;4976309;28;20077;-70
2022/12/13 10:07:59;;;;;;;120.68;48.15;;;-0.90;99.90;;;;;;4976392;28;20027;-70
2022/12/13 10:10:26;;;;;;;110.43;47.67;;;-0.90;99.90;;;;;;4976762;28;20034;-70
2022/12/13 10:13:09;;;;;;;118.55;49.20;;;-1.00;99.90;;;;;;4976525;28;20077;-70
2022/12/13 10:15:40;;;;;;;125.18;52.47;;;-1.00;99.90;;;;;;4976803;28;20033;-70
2022/12/13 10:18:08;;;;;;;115.93;51.25;;;-1.00;99.90;;;;;;4975806;28;20092;-71
2022/12/13 10:20:34;;;;;;;110.35;48.05;;;-0.90;99.90;;;;;;4976243;28;20069;-71
2022/12/13 10:22:59;;;;;;;123.55;52.65;;;-0.90;99.90;;;;;;4976241;28;20101;-70
2022/12/13 10:25:48;;;;;;;130.38;49.40;;;-0.90;99.90;;;;;;4976356;28;20497;-71
2022/12/13 10:28:16;;;;;;;132.90;57.15;;;-0.90;99.90;;;;;;4975681;28;20030;-70
2022/12/13 10:30:43;;;;;;;128.32;53.50;;;-0.80;99.90;;;;;;4976368;28;20030;-70
2022/12/13 10:33:23;;;;;;;129.13;53.20;;;-0.80;99.90;;;;;;4975283;28;20031;-70
2022/12/13 10:36:06;;;;;;;125.97;50.58;;;-0.80;99.90;;;;;;4975755;28;20085;-71
2022/12/13 10:38:35;;;;;;;114.60;47.97;;;-0.70;99.90;;;;;;4976353;28;20452;-70
2022/12/13 10:41:01;;;;;;;115.65;49.55;;;-0.70;99.90;;;;;;4975446;28;20023;-71
2022/12/13 10:43:29;;;;;;;113.43;51.80;;;-0.70;99.90;;;;;;4976242;28;20023;-70
2022/12/13 10:45:54;;;;;;;131.70;55.08;;;-0.70;99.90;;;;;;4976343;28;20105;-71
2022/12/13 10:48:24;;;;;;;132.10;56.72;;;-0.70;99.90;;;;;;4975754;28;20058;-70
2022/12/13 10:51:03;;;;;;;136.55;54.58;;;-0.80;99.90;;;;;;4974725;28;20031;-70
2022/12/13 10:53:32;;;;;;;130.35;52.97;;;-0.80;99.90;;;;;;4974439;28;20442;-70
2022/12/13 10:55:59;;;;;;;126.80;52.45;;;-0.90;99.90;;;;;;4975581;28;20074;-71
2022/12/13 10:58:35;;;;;;;139.77;56.60;;;-0.80;99.90;;;;;;4974966;28;20117;-71
2022/12/13 11:01:17;;;;;;;129.70;56.08;;;-0.80;99.90;;;;;;4975909;28;20026;-70
2022/12/13 11:03:58;;;;;;;128.65;52.95;;;-0.80;99.90;;;;;;4975751;28;20027;-71
2022/12/13 11:06:25;;;;;;;139.45;54.63;;;-0.80;99.90;;;;;;4975159;28;20015;-70
2022/12/13 11:08:52;;;;;;;135.77;55.78;;;-0.70;99.90;;;;;;4975280;28;20105;-71
2022/12/13 11:11:28;;;;;;;142.85;54.45;;;-0.70;99.90;;;;;;4975416;28;20081;-70
2022/12/13 11:14:00;;;;;;;130.55;54.80;;;-0.70;99.90;;;;;;4974352;28;20054;-72
2022/12/13 11:16:31;;;;;;;122.93;53.50;;;-0.70;99.90;;;;;;4975527;28;20074;-71
2022/12/13 11:19:01;;;;;;;146.02;55.53;;;-0.70;99.90;;;;;;4975581;28;20026;-70
2022/12/13 11:21:33;;;;;;;131.70;55.72;;;-0.60;99.90;;;;;;4975365;28;20034;-70
2022/12/13 11:24:02;;;;;;;128.60;50.85;;;-0.50;99.90;;;;;;4975221;28;20090;-70
2022/12/13 11:26:29;;;;;;;132.18;54.90;;;-0.50;99.90;;;;;;4974082;28;20022;-71
2022/12/13 11:29:20;;;;;;;133.13;54.53;;;-0.50;99.90;;;;;;4975267;28;20030;-70
2022/12/13 11:32:07;;;;;;;145.38;56.30;;;-0.60;99.90;;;;;;4975236;28;20033;-71
2022/12/13 11:34:54;;;;;;;133.90;55.30;;;-0.60;99.90;;;;;;4975460;28;20033;-70
2022/12/13 11:37:37;;;;;;;143.35;55.25;;;-0.60;99.90;;;;;;4974337;28;20027;-70
2022/12/13 11:40:26;;;;;;;144.68;58.88;;;-0.50;99.90;;;;;;4975060;28;20117;-71
2022/12/13 11:43:03;;;;;;;144.20;57.65;;;-0.60;99.90;;;;;;4974379;28;20501;-71
2022/12/13 11:45:36;;;;;;;145.30;55.90;;;-0.60;99.90;;;;;;4973824;28;20096;-70
2022/12/13 11:48:19;;;;;;;127.78;54.28;;;-0.70;99.90;;;;;;4975277;28;20088;-70
2022/12/13 11:50:50;;;;;;;133.50;54.58;;;-0.80;99.90;;;;;;4975124;28;20039;-71
2022/12/13 11:53:24;;;;;;;146.43;58.35;;;-0.70;99.90;;;;;;4974433;28;20031;-70
2022/12/13 11:56:09;;;;;;;151.80;59.88;;;-0.70;99.90;;;;;;4970411;28;20419;-71
2022/12/13 11:58:53;;;;;;;143.57;58.53;;;-0.70;99.90;;;;;;4955865;29;20031;-70
2022/12/13 12:01:30;;;;;;;154.05;57.30;;;-0.70;99.90;;;;;;4964982;28;20028;-70
2022/12/13 12:04:15;;;;;;;153.05;60.35;;;-0.70;99.90;;;;;;4974656;28;20031;-70
2022/12/13 12:06:49;;;;;;;144.82;58.25;;;-0.70;99.90;;;;;;4974067;28;20030;-71
2022/12/13 12:09:19;;;;;;;156.98;61.63;;;-0.70;99.90;;;;;;4975292;28;20541;-70
2022/12/13 12:11:51;;;;;;;146.82;60.97;;;-0.70;99.90;;;;;;4973981;28;20042;-71
2022/12/13 12:14:47;;;;;;;153.27;59.35;;;-0.70;99.90;;;;;;4955565;28;20114;-70
2022/12/13 12:17:15;;;;;;;156.15;60.33;;;-0.70;99.90;;;;;;4954886;28;20042;-71
2022/12/13 12:19:45;;;;;;;149.90;61.50;;;-0.70;99.90;;;;;;4974970;28;20433;-70
2022/12/13 12:22:35;;;;;;;145.32;57.05;;;-0.70;99.90;;;;;;4974991;28;20018;-70
2022/12/13 12:25:17;;;;;;;147.60;58.63;;;-0.60;99.90;;;;;;4974673;28;20119;-70
2022/12/13 12:27:45;;;;;;;143.05;55.45;;;-0.60;99.90;;;;;;4978089;28;20487;-71
2022/12/13 12:30:33;;;;;;;144.52;57.33;;;-0.60;99.90;;;;;;4977685;28;20037;-70
2022/12/13 12:33:29;;;;;;;142.27;58.47;;;-0.70;99.90;;;;;;4977843;28;20118;-70